Time;durP1;ratioP1;P1;durP2;ratioP2;P2;SDS_P1;SDS_P2;PMS_P1;PMS_P2;Temp;Humidity;BMP_temperature;BMP_pressure;BME280_temperature;BME280_humidity;BME280_pressure;Samples;Min_cycle;Max_cycle;Signal;HPM_P1;HPM_P2
2023/04/25 00:00:53;;;;;;;;;;;;;;;14.22;98.98;97222.59;5029664;28;20047;-80
2023/04/25 00:03:19;;;;;;;;;;;;;;;14.21;98.40;97229.06;5027474;28;19929;-79
2023/04/25 00:05:46;;;;;;;;;;;;;;;14.16;98.59;97229.19;5010881;28;20000;-78
2023/04/25 00:08:12;;;;;;;;;;;;;;;13.78;100.00;97224.06;5009408;28;20019;-80
2023/04/25 00:10:40;;;;;;;;;;;;;;;12.95;100.00;97227.75;5012182;28;19936;-79
2023/04/25 00:13:08;;;;;;;;;;;;;;;12.72;100.00;97217.19;5028127;28;20059;-79
2023/04/25 00:15:35;;;;;;;;;;;;;;;12.64;100.00;97221.31;5021759;28;19929;-79
2023/04/25 00:18:02;;;;;;;;;;;;;;;12.97;100.00;97216.72;5009575;28;20035;-80
2023/04/25 00:20:29;;;;;;;;;;;;;;;13.21;100.00;97217.44;4999138;28;19929;-80
2023/04/25 00:22:56;;;;;;;;;;;;;;;13.44;100.00;97218.31;5014577;28;20631;-79
2023/04/25 00:25:22;;;;;;;;;;;;;;;13.58;100.00;97221.00;5008136;28;19925;-80
2023/04/25 00:27:50;;;;;;;;;;;;;;;13.65;100.00;97219.50;5015760;28;19999;-78
2023/04/25 00:30:16;;;;;;;;;;;;;;;13.71;100.00;97218.31;5018992;28;19951;-79
2023/04/25 00:32:42;;;;;;;;;;;;;;;13.72;100.00;97225.25;5017207;28;19925;-79
2023/04/25 00:35:09;;;;;;;;;;;;;;;13.77;100.00;97214.41;5024615;28;19968;-79
2023/04/25 00:37:36;;;;;;;;;;;;;;;13.83;100.00;97215.13;5016861;28;19968;-79
2023/04/25 00:40:05;;;;;;;;;;;;;;;13.51;100.00;97224.88;5030902;28;19925;-78
2023/04/25 00:42:32;;;;;;;;;;;;;;;13.50;100.00;97215.25;5023878;28;19937;-79
2023/04/25 00:45:01;;;;;;;;;;;;;;;13.58;100.00;97221.00;5029591;28;19931;-79
2023/04/25 00:47:28;;;;;;;;;;;;;;;13.30;100.00;97218.31;5031414;28;20297;-79
2023/04/25 00:49:55;;;;;;;;;;;;;;;13.51;100.00;97218.72;5013832;28;20531;-79
2023/04/25 00:52:21;;;;;;;;;;;;;;;13.19;100.00;97216.09;5020282;28;20035;-78
2023/04/25 00:54:48;;;;;;;;;;;;;;;13.16;100.00;97208.66;5027202;28;19941;-79
2023/04/25 00:57:14;;;;;;;;;;;;;;;12.69;100.00;97207.06;5028368;28;20390;-78
2023/04/25 00:59:44;;;;;;;;;;;;;;;12.57;100.00;97212.84;5017139;28;20421;-79
2023/04/25 01:02:12;;;;;;;;;;;;;;;12.63;100.00;97203.63;5028029;28;20239;-78
2023/04/25 01:04:38;;;;;;;;;;;;;;;12.66;100.00;97202.25;5019650;28;19936;-77
2023/04/25 01:07:05;;;;;;;;;;;;;;;12.51;100.00;97205.97;5022490;28;20133;-78
2023/04/25 01:09:31;;;;;;;;;;;;;;;12.32;100.00;97205.22;5030804;28;19947;-80
2023/04/25 01:11:58;;;;;;;;;;;;;;;12.57;100.00;97209.38;5015194;28;19932;-78
2023/04/25 01:14:24;;;;;;;;;;;;;;;12.43;100.00;97203.97;5014091;28;19937;-79
2023/04/25 01:16:52;;;;;;;;;;;;;;;12.17;100.00;97202.75;5024192;28;19972;-77
2023/04/25 01:19:20;;;;;;;;;;;;;;;11.90;100.00;97200.72;5013631;28;20035;-79
2023/04/25 01:21:48;;;;;;;;;;;;;;;12.25;100.00;97210.16;5018652;28;19929;-78
2023/04/25 01:24:15;;;;;;;;;;;;;;;12.47;100.00;97210.34;5015519;28;20021;-79
2023/04/25 01:26:44;;;;;;;;;;;;;;;12.68;100.00;97206.25;5023121;28;19983;-78
2023/04/25 01:29:11;;;;;;;;;;;;;;;12.92;100.00;97214.94;5020920;28;19962;-79
2023/04/25 01:31:37;;;;;;;;;;;;;;;12.37;100.00;97205.16;5006271;28;19925;-79
2023/04/25 01:34:04;;;;;;;;;;;;;;;12.45;100.00;97210.63;5013863;28;20009;-78
2023/04/25 01:36:30;;;;;;;;;;;;;;;12.59;100.00;97216.06;5006784;28;19932;-80
2023/04/25 01:38:58;;;;;;;;;;;;;;;12.84;100.00;97210.25;5010824;28;20345;-81
2023/04/25 01:41:24;;;;;;;;;;;;;;;13.01;100.00;97215.06;5025362;28;19961;-79
2023/04/25 01:43:51;;;;;;;;;;;;;;;13.09;100.00;97219.75;5022692;28;19940;-79
2023/04/25 01:46:17;;;;;;;;;;;;;;;12.78;100.00;97219.47;5003925;28;19929;-79
2023/04/25 01:48:44;;;;;;;;;;;;;;;12.89;100.00;97214.75;5016362;28;20603;-78
2023/04/25 01:51:11;;;;;;;;;;;;;;;12.76;100.00;97210.94;5010714;28;20321;-79
2023/04/25 01:53:38;;;;;;;;;;;;;;;12.87;100.00;97211.56;5019107;28;19925;-78
2023/04/25 01:56:06;;;;;;;;;;;;;;;13.03;100.00;97218.22;5020927;28;20024;-80
2023/04/25 01:58:32;;;;;;;;;;;;;;;13.08;100.00;97210.16;5011628;28;19968;-78
2023/04/25 02:00:59;;;;;;;;;;;;;;;13.06;100.00;97214.97;5026040;28;19932;-79
2023/04/25 02:03:25;;;;;;;;;;;;;;;13.20;100.00;97220.38;5008023;28;20017;-78
2023/04/25 02:05:51;;;;;;;;;;;;;;;13.27;100.00;97205.50;5027079;28;19935;-78
2023/04/25 02:08:18;;;;;;;;;;;;;;;13.31;100.00;97203.81;5019772;28;20031;-79
2023/04/25 02:10:44;;;;;;;;;;;;;;;13.25;100.00;97204.19;5018132;28;19929;-79
2023/04/25 02:13:12;;;;;;;;;;;;;;;13.25;100.00;97205.00;5026712;28;19925;-79
2023/04/25 02:15:39;;;;;;;;;;;;;;;13.15;100.00;97196.34;5017009;28;20008;-78
2023/04/25 02:18:06;;;;;;;;;;;;;;;13.07;100.00;97197.00;5029256;28;20015;-79
2023/04/25 02:20:32;;;;;;;;;;;;;;;12.76;100.00;97194.06;5029839;28;19925;-79
2023/04/25 02:22:59;;;;;;;;;;;;;;;12.76;100.00;97202.91;5027964;28;19979;-78
2023/04/25 02:25:25;;;;;;;;;;;;;;;12.92;100.00;97198.88;5021177;28;19930;-79
2023/04/25 02:27:52;;;;;;;;;;;;;;;13.07;100.00;97191.63;5017890;28;20012;-79
2023/04/25 02:30:20;;;;;;;;;;;;;;;12.97;100.00;97198.78;5015059;28;19955;-79
2023/04/25 02:32:46;;;;;;;;;;;;;;;12.98;100.00;97199.56;5024363;28;19931;-79
2023/04/25 02:35:13;;;;;;;;;;;;;;;12.62;100.00;97190.56;5025117;28;20020;-78
2023/04/25 02:37:39;;;;;;;;;;;;;;;12.73;100.00;97192.78;5024210;28;19935;-78
2023/04/25 02:40:06;;;;;;;;;;;;;;;12.89;100.00;97190.63;5012008;28;19926;-79
2023/04/25 02:42:33;;;;;;;;;;;;;;;12.90;100.00;97187.63;5014024;28;20012;-79
2023/04/25 02:44:59;;;;;;;;;;;;;;;12.89;100.00;97175.34;5012636;28;19925;-79
2023/04/25 02:47:27;;;;;;;;;;;;;;;12.79;100.00;97180.88;5010184;28;20525;-79
2023/04/25 02:49:53;;;;;;;;;;;;;;;12.77;100.00;97180.38;5025977;28;19935;-79
2023/04/25 02:52:21;;;;;;;;;;;;;;;12.55;100.00;97174.84;5025696;28;19925;-79
2023/04/25 02:54:47;;;;;;;;;;;;;;;12.42;100.00;97170.25;5013944;28;20024;-79
2023/04/25 02:57:13;;;;;;;;;;;;;;;12.59;100.00;97173.19;5024994;28;19932;-77
2023/04/25 02:59:40;;;;;;;;;;;;;;;12.36;100.00;97163.38;5014549;28;19929;-78
2023/04/25 03:02:06;;;;;;;;;;;;;;;12.54;100.00;97167.91;5021125;28;20711;-79
2023/04/25 03:04:34;;;;;;;;;;;;;;;12.76;100.00;97165.38;5011254;28;19931;-78
2023/04/25 03:07:00;;;;;;;;;;;;;;;12.72;100.00;97169.72;5012815;28;19925;-77
2023/04/25 03:09:27;;;;;;;;;;;;;;;12.78;100.00;97171.22;5001810;28;19996;-78
2023/04/25 03:11:53;;;;;;;;;;;;;;;12.87;100.00;97161.44;5012422;28;19925;-79
2023/04/25 03:14:19;;;;;;;;;;;;;;;12.84;100.00;97156.66;5024238;28;19925;-79
2023/04/25 03:16:46;;;;;;;;;;;;;;;12.76;100.00;97160.03;5018003;28;19933;-78
2023/04/25 03:19:12;;;;;;;;;;;;;;;12.75;100.00;97157.66;5017568;28;20401;-79
2023/04/25 03:21:40;;;;;;;;;;;;;;;12.81;100.00;97151.13;5001564;28;20536;-79
2023/04/25 03:24:06;;;;;;;;;;;;;;;12.89;100.00;97153.09;5004062;28;19925;-79
2023/04/25 03:26:33;;;;;;;;;;;;;;;12.99;100.00;97153.72;5017817;28;20024;-79
2023/04/25 03:28:59;;;;;;;;;;;;;;;13.02;100.00;97154.22;5018636;28;20015;-79
2023/04/25 03:31:25;;;;;;;;;;;;;;;13.02;100.00;97152.34;5014717;28;19925;-79
2023/04/25 03:33:52;;;;;;;;;;;;;;;12.99;100.00;97153.72;5025647;28;20342;-79
2023/04/25 03:36:19;;;;;;;;;;;;;;;12.88;100.00;97146.16;5018629;28;19929;-79
2023/04/25 03:38:48;;;;;;;;;;;;;;;12.91;100.00;97145.56;5024295;28;19929;-79
2023/04/25 03:41:14;;;;;;;;;;;;;;;12.79;100.00;97148.72;5024137;28;19925;-78
2023/04/25 03:43:40;;;;;;;;;;;;;;;12.66;100.00;97159.41;5023729;28;20024;-79
2023/04/25 03:46:07;;;;;;;;;;;;;;;12.37;100.00;97154.28;5025155;28;20308;-79
2023/04/25 03:48:33;;;;;;;;;;;;;;;12.53;100.00;97157.50;5016005;28;20349;-78
2023/04/25 03:50:59;;;;;;;;;;;;;;;12.55;100.00;97158.00;5015953;28;19925;-79
2023/04/25 03:53:26;;;;;;;;;;;;;;;12.55;100.00;97153.44;5016987;28;19935;-79
2023/04/25 03:55:53;;;;;;;;;;;;;;;12.52;100.00;97162.06;5015224;28;19925;-79
2023/04/25 03:58:20;;;;;;;;;;;;;;;12.51;100.00;97160.47;5023653;28;20040;-79
2023/04/25 04:00:46;;;;;;;;;;;;;;;12.58;100.00;97158.22;5025712;28;20016;-79
2023/04/25 04:03:13;;;;;;;;;;;;;;;12.65;100.00;97157.81;5006992;28;20032;-78
2023/04/25 04:05:40;;;;;;;;;;;;;;;12.69;100.00;97170.31;5016816;28;19925;-78
2023/04/25 04:08:06;;;;;;;;;;;;;;;12.69;100.00;97154.25;5023176;28;20553;-79
2023/04/25 04:10:33;;;;;;;;;;;;;;;12.72;100.00;97163.59;5011939;28;19929;-79
2023/04/25 04:13:00;;;;;;;;;;;;;;;12.81;100.00;97154.56;5025144;28;20431;-80
2023/04/25 04:15:27;;;;;;;;;;;;;;;12.81;100.00;97165.28;5006514;28;19929;-80
2023/04/25 04:17:53;;;;;;;;;;;;;;;12.85;100.00;97149.41;5017288;28;19931;-78
2023/04/25 04:20:20;;;;;;;;;;;;;;;12.85;100.00;97154.78;5020457;28;19979;-79
2023/04/25 04:22:47;;;;;;;;;;;;;;;12.77;100.00;97158.94;5012806;28;19925;-78
2023/04/25 04:25:13;;;;;;;;;;;;;;;12.74;100.00;97154.19;5016376;28;20032;-79
2023/04/25 04:27:40;;;;;;;;;;;;;;;12.66;100.00;97151.34;5022951;28;20013;-79
2023/04/25 04:30:09;;;;;;;;;;;;;;;12.79;100.00;97156.75;5011462;28;20460;-81
2023/04/25 04:32:37;;;;;;;;;;;;;;;12.80;100.00;97154.88;5021024;28;19935;-81
2023/04/25 04:35:04;;;;;;;;;;;;;;;12.78;100.00;97151.72;5007696;28;20019;-79
2023/04/25 04:37:30;;;;;;;;;;;;;;;12.71;100.00;97151.28;5007791;28;20021;-78
2023/04/25 04:39:57;;;;;;;;;;;;;;;12.57;100.00;97151.25;5016657;28;19941;-80
2023/04/25 04:42:24;;;;;;;;;;;;;;;12.46;100.00;97152.50;5021313;28;19961;-79
2023/04/25 04:44:51;;;;;;;;;;;;;;;12.56;100.00;97152.34;5021698;28;19975;-79
2023/04/25 04:47:20;;;;;;;;;;;;;;;12.47;100.00;97154.13;5013453;28;19933;-79
2023/04/25 04:49:46;;;;;;;;;;;;;;;12.46;100.00;97152.50;5007848;28;19976;-79
2023/04/25 04:52:12;;;;;;;;;;;;;;;12.48;100.00;97144.19;5019751;28;20023;-78
2023/04/25 04:54:39;;;;;;;;;;;;;;;12.20;100.00;97156.66;5015469;28;19972;-79
2023/04/25 04:57:05;;;;;;;;;;;;;;;12.36;100.00;97156.16;5017698;28;19944;-79
2023/04/25 04:59:32;;;;;;;;;;;;;;;12.13;100.00;97156.25;5023919;28;20373;-79
2023/04/25 05:01:58;;;;;;;;;;;;;;;11.89;100.00;97150.97;5026681;28;19929;-79
2023/04/25 05:04:26;;;;;;;;;;;;;;;12.11;100.00;97153.06;5029254;28;20024;-79
2023/04/25 05:06:54;;;;;;;;;;;;;;;12.32;100.00;97143.63;5017168;28;20244;-79
2023/04/25 05:09:20;;;;;;;;;;;;;;;12.36;100.00;97147.31;5024230;28;20027;-79
2023/04/25 05:11:47;;;;;;;;;;;;;;;11.86;100.00;97144.31;5020145;28;19976;-78
2023/04/25 05:14:13;;;;;;;;;;;;;;;11.39;100.00;97152.41;5030868;28;20083;-80
2023/04/25 05:16:40;;;;;;;;;;;;;;;11.55;100.00;97145.78;5023399;28;19930;-79
2023/04/25 05:19:06;;;;;;;;;;;;;;;11.43;100.00;97149.97;5028484;28;19925;-79
2023/04/25 05:21:34;;;;;;;;;;;;;;;11.59;100.00;97152.16;5027764;28;19925;-79
2023/04/25 05:24:01;;;;;;;;;;;;;;;11.80;100.00;97150.03;5018947;28;19964;-79
2023/04/25 05:26:30;;;;;;;;;;;;;;;11.81;100.00;97152.44;5022709;28;19976;-79
2023/04/25 05:28:57;;;;;;;;;;;;;;;11.71;100.00;97151.75;5025699;28;20016;-79
2023/04/25 05:31:23;;;;;;;;;;;;;;;11.88;100.00;97152.84;5022819;28;20407;-79
2023/04/25 05:33:49;;;;;;;;;;;;;;;12.10;100.00;97151.50;5018977;28;20559;-79
2023/04/25 05:36:16;;;;;;;;;;;;;;;11.87;100.00;97158.50;5024158;28;20464;-79
2023/04/25 05:38:43;;;;;;;;;;;;;;;11.99;100.00;97150.03;5015578;28;20016;-77
2023/04/25 05:41:10;;;;;;;;;;;;;;;11.87;100.00;97153.16;5015832;28;20333;-77
2023/04/25 05:43:36;;;;;;;;;;;;;;;11.90;100.00;97150.69;5024569;28;19969;-80
2023/04/25 05:46:03;;;;;;;;;;;;;;;12.10;100.00;97162.19;5014535;28;19968;-79
2023/04/25 05:48:29;;;;;;;;;;;;;;;12.12;100.00;97154.66;5011445;28;19937;-79
2023/04/25 05:50:56;;;;;;;;;;;;;;;12.16;100.00;97155.69;5028125;28;19925;-80
2023/04/25 05:53:22;;;;;;;;;;;;;;;12.31;100.00;97147.41;5027238;28;20012;-79
2023/04/25 05:55:50;;;;;;;;;;;;;;;12.51;100.00;97156.97;5019011;28;19936;-78
2023/04/25 05:58:16;;;;;;;;;;;;;;;12.59;100.00;97153.66;5017424;28;20031;-79
2023/04/25 06:00:43;;;;;;;;;;;;;;;12.84;100.00;97148.63;5010904;28;19931;-79
2023/04/25 06:03:10;;;;;;;;;;;;;;;12.71;100.00;97145.94;5007260;28;19939;-78
2023/04/25 06:05:36;;;;;;;;;;;;;;;12.79;100.00;97148.72;5006241;28;19929;-78
2023/04/25 06:08:03;;;;;;;;;;;;;;;12.87;100.00;97145.34;5018553;28;19925;-78
2023/04/25 06:10:29;;;;;;;;;;;;;;;12.92;100.00;97147.16;5022071;28;20036;-79
2023/04/25 06:12:57;;;;;;;;;;;;;;;12.79;100.00;97148.72;5018291;28;20349;-80
2023/04/25 06:15:23;;;;;;;;;;;;;;;12.89;100.00;97156.59;5017896;28;20004;-79
2023/04/25 06:17:49;;;;;;;;;;;;;;;13.07;100.00;97143.38;5001216;28;20039;-77
2023/04/25 06:20:16;;;;;;;;;;;;;;;13.19;100.00;97146.41;4997011;28;19947;-78
2023/04/25 06:22:42;;;;;;;;;;;;;;;12.98;100.00;97146.78;5007862;28;19968;-79
2023/04/25 06:25:09;;;;;;;;;;;;;;;12.92;100.00;97147.16;5003808;28;19961;-79
2023/04/25 06:27:35;;;;;;;;;;;;;;;12.93;100.00;97141.50;4998854;28;19926;-79
2023/04/25 06:30:04;;;;;;;;;;;;;;;12.97;100.00;97141.69;5006130;28;19925;-78
2023/04/25 06:32:30;;;;;;;;;;;;;;;13.21;100.00;97130.84;5016362;28;20042;-79
2023/04/25 06:34:57;;;;;;;;;;;;;;;13.41;100.00;97138.44;5025280;28;20016;-79
2023/04/25 06:37:24;;;;;;;;;;;;;;;13.55;100.00;97133.09;5018650;28;19936;-79
2023/04/25 06:39:50;;;;;;;;;;;;;;;13.58;100.00;97129.81;5011405;28;19940;-78
2023/04/25 06:42:16;;;;;;;;;;;;;;;13.51;100.00;97122.97;5015073;28;20028;-79
2023/04/25 06:44:43;;;;;;;;;;;;;;;13.70;100.00;97130.06;5023260;28;19932;-79
2023/04/25 06:47:10;;;;;;;;;;;;;;;13.56;100.00;97130.09;5027764;28;19929;-79
2023/04/25 06:49:37;;;;;;;;;;;;;;;13.44;100.00;97129.81;5029751;28;20015;-80
2023/04/25 06:52:03;;;;;;;;;;;;;;;13.44;100.00;97129.81;5025759;28;20250;-78
2023/04/25 06:54:30;;;;;;;;;;;;;;;13.22;100.00;97133.19;5007613;28;19933;-78
2023/04/25 06:56:56;;;;;;;;;;;;;;;13.17;100.00;97132.50;5010299;28;19977;-78
2023/04/25 06:59:23;;;;;;;;;;;;;;;13.30;100.00;97134.41;5017674;28;19940;-79
2023/04/25 07:01:49;;;;;;;;;;;;;;;13.33;100.00;97131.91;5022304;28;19940;-78
2023/04/25 07:04:17;;;;;;;;;;;;;;;13.44;100.00;97130.59;5022430;28;19925;-78
2023/04/25 07:06:43;;;;;;;;;;;;;;;13.45;100.00;97128.72;5011264;28;20403;-80
2023/04/25 07:09:09;;;;;;;;;;;;;;;13.49;100.00;97135.09;5017487;28;19997;-80
2023/04/25 07:11:36;;;;;;;;;;;;;;;13.36;100.00;97127.84;5011067;28;19960;-79
2023/04/25 07:14:03;;;;;;;;;;;;;;;13.45;100.00;97139.44;5014986;28;19925;-79
2023/04/25 07:16:29;;;;;;;;;;;;;;;13.27;100.00;97143.84;5008535;28;19932;-78
2023/04/25 07:18:55;;;;;;;;;;;;;;;13.19;100.00;97141.03;5030077;28;19932;-78
2023/04/25 07:21:23;;;;;;;;;;;;;;;13.03;100.00;97148.53;5008757;28;20589;-77
2023/04/25 07:23:49;;;;;;;;;;;;;;;13.05;100.00;97137.53;5017053;28;20662;-80
2023/04/25 07:26:16;;;;;;;;;;;;;;;13.06;100.00;97153.31;5017378;28;20075;-79
2023/04/25 07:28:43;;;;;;;;;;;;;;;13.13;100.00;97136.88;5022752;28;20015;-79
2023/04/25 07:31:09;;;;;;;;;;;;;;;13.24;100.00;97132.91;5021167;28;19929;-78
2023/04/25 07:33:36;;;;;;;;;;;;;;;13.21;100.00;97128.94;5021354;28;19979;-79
2023/04/25 07:36:02;;;;;;;;;;;;;;;13.36;100.00;97130.53;5013455;28;19925;-79
2023/04/25 07:38:30;;;;;;;;;;;;;;;13.24;100.00;97139.06;5013216;28;20715;-78
2023/04/25 07:40:56;;;;;;;;;;;;;;;13.18;100.00;97134.09;5003552;28;19925;-78
2023/04/25 07:43:23;;;;;;;;;;;;;;;13.18;100.00;97136.78;5008559;28;20005;-79
2023/04/25 07:45:49;;;;;;;;;;;;;;;13.27;100.00;97135.00;5021733;28;20081;-78
2023/04/25 07:48:17;;;;;;;;;;;;;;;13.21;100.00;97136.19;5030449;28;19929;-79
2023/04/25 07:50:43;;;;;;;;;;;;;;;13.11;100.00;97149.78;5007153;28;20021;-79
2023/04/25 07:53:10;;;;;;;;;;;;;;;13.15;100.00;97134.69;5003962;28;20652;-78
2023/04/25 07:55:39;;;;;;;;;;;;;;;13.07;100.00;97149.56;5017989;28;19925;-80
2023/04/25 07:58:06;;;;;;;;;;;;;;;13.06;100.00;97141.81;5017398;28;19986;-79
2023/04/25 08:00:32;;;;;;;;;;;;;;;13.17;100.00;97135.19;5007927;28;19936;-79
2023/04/25 08:02:58;;;;;;;;;;;;;;;13.22;100.00;97141.25;5011980;28;20038;-78
2023/04/25 08:05:25;;;;;;;;;;;;;;;13.02;100.00;97135.47;5007664;28;19979;-79
2023/04/25 08:07:51;;;;;;;;;;;;;;;13.29;100.00;97135.47;5018698;28;19964;-79
2023/04/25 08:10:18;;;;;;;;;;;;;;;13.35;99.99;97134.28;5017892;28;19936;-79
2023/04/25 08:12:45;;;;;;;;;;;;;;;13.29;100.00;97130.91;5017152;28;19925;-80
2023/04/25 08:15:13;;;;;;;;;;;;;;;13.44;96.27;97135.16;5024367;28;20036;-80
2023/04/25 08:17:39;;;;;;;;;;;;;;;13.55;98.77;97135.75;5024067;28;19933;-78
2023/04/25 08:20:06;;;;;;;;;;;;;;;13.63;96.03;97140.41;5028014;28;19976;-79
2023/04/25 08:22:33;;;;;;;;;;;;;;;13.62;93.08;97128.09;5017936;28;20392;-80
2023/04/25 08:25:00;;;;;;;;;;;;;;;13.57;94.90;97129.00;5022489;28;20333;-78
2023/04/25 08:27:26;;;;;;;;;;;;;;;13.51;96.66;97131.00;5024411;28;20023;-80
2023/04/25 08:29:54;;;;;;;;;;;;;;;13.44;91.88;97133.28;5023999;28;19925;-79
2023/04/25 08:32:21;;;;;;;;;;;;;;;13.33;95.69;97131.91;5018056;28;19969;-79
2023/04/25 08:34:47;;;;;;;;;;;;;;;13.50;92.38;97124.03;5021733;28;19926;-78
2023/04/25 08:37:13;;;;;;;;;;;;;;;13.41;96.36;97123.16;5018453;28;19926;-79
2023/04/25 08:39:40;;;;;;;;;;;;;;;13.63;94.72;97137.72;5027731;28;19929;-79
2023/04/25 08:42:08;;;;;;;;;;;;;;;13.54;95.89;97137.66;5020542;28;19925;-79
2023/04/25 08:44:34;;;;;;;;;;;;;;;13.47;93.29;97142.63;5022742;28;20007;-79
2023/04/25 08:47:03;;;;;;;;;;;;;;;13.61;89.53;97140.72;5028392;28;20464;-79
2023/04/25 08:49:31;;;;;;;;;;;;;;;13.50;89.23;97145.50;5020506;28;19941;-79
2023/04/25 08:52:00;;;;;;;;;;;;;;;13.57;87.21;97142.41;5014569;28;19964;-80
2023/04/25 08:54:27;;;;;;;;;;;;;;;13.56;91.15;97150.75;5024800;28;19932;-79
2023/04/25 08:56:55;;;;;;;;;;;;;;;13.71;91.11;97145.09;5017345;28;19932;-80
2023/04/25 08:59:21;;;;;;;;;;;;;;;13.75;88.11;97154.91;5027107;28;19932;-78
2023/04/25 09:01:48;;;;;;;;;;;;;;;13.80;91.25;97154.78;5014891;28;19929;-79
2023/04/25 09:04:16;;;;;;;;;;;;;;;13.90;88.91;97157.25;5009285;28;19972;-79
2023/04/25 09:06:42;;;;;;;;;;;;;;;13.79;91.24;97155.91;5011488;28;19951;-79
2023/04/25 09:09:10;;;;;;;;;;;;;;;13.86;90.11;97158.16;4997464;28;20290;-79
2023/04/25 09:11:37;;;;;;;;;;;;;;;13.72;90.94;97168.91;5034237;28;19975;-78
2023/04/25 09:14:13;;;;;;;;;;;;;;;13.65;91.21;97165.06;5010749;28;20353;-79
2023/04/25 09:16:59;;;;;;;;;;;;;;;13.56;92.78;97170.31;5022323;28;19925;-79
2023/04/25 09:19:27;;;;;;;;;;;;;;;13.59;92.92;97169.72;5012017;28;19933;-79
2023/04/25 09:21:54;;;;;;;;;;;;;;;13.52;94.73;97172.03;5018147;28;20292;-79
2023/04/25 09:24:30;;;;;;;;;;;;;;;13.39;97.66;97176.31;5023081;28;19933;-78
2023/04/25 09:26:56;;;;;;;;;;;;;;;13.26;100.00;97177.09;5023208;28;19932;-78
2023/04/25 09:29:29;;;;;;;;;;;;;;;13.37;100.00;97177.69;5021881;28;19925;-78
2023/04/25 09:32:11;;;;;;;;;;;;;;;13.28;100.00;97192.88;5021073;28;19925;-77
2023/04/25 09:34:41;;;;;;;;;;;;;;;13.31;100.00;97198.44;5012819;28;19934;-80
2023/04/25 09:37:08;;;;;;;;;;;;;;;13.53;100.00;97198.53;5020955;28;19932;-78
2023/04/25 09:39:34;;;;;;;;;;;;;;;13.55;100.00;97203.63;5012851;28;19935;-77
2023/04/25 09:42:01;;;;;;;;;;;;;;;13.60;100.00;97205.41;5020885;28;19929;-78
2023/04/25 09:44:27;;;;;;;;;;;;;;;13.60;100.00;97206.19;5027455;28;19932;-77
2023/04/25 09:46:54;;;;;;;;;;;;;;;13.59;100.00;97201.13;5030435;28;19932;-77
2023/04/25 09:49:20;;;;;;;;;;;;;;;13.90;100.00;97194.03;5030834;28;19991;-78
2023/04/25 09:51:56;;;;;;;;;;;;;;;14.00;99.97;97202.66;5027952;28;19975;-79
2023/04/25 09:54:22;;;;;;;;;;;;;;;13.85;100.00;97219.09;5016286;28;19971;-78
2023/04/25 09:56:49;;;;;;;;;;;;;;;13.78;100.00;97207.97;5017329;28;20011;-78
2023/04/25 09:59:16;;;;;;;;;;;;;;;13.78;100.00;97223.28;5019311;28;19945;-79
2023/04/25 10:01:43;;;;;;;;;;;;;;;13.44;100.00;97218.31;5039257;28;20028;-78
2023/04/25 10:04:11;;;;;;;;;;;;;;;13.42;100.00;97229.34;5025866;28;20393;-79
2023/04/25 10:06:38;;;;;;;;;;;;;;;13.17;100.00;97220.97;5021326;28;19929;-78
2023/04/25 10:09:08;;;;;;;;;;;;;;;13.19;100.00;97216.09;5023182;28;19964;-78
2023/04/25 10:11:35;;;;;;;;;;;;;;;13.35;100.00;97220.09;5014293;28;19937;-79
2023/04/25 10:14:02;;;;;;;;;;;;;;;13.48;100.00;97216.63;5013587;28;19925;-78
2023/04/25 10:16:29;;;;;;;;;;;;;;;13.48;100.00;97217.44;5024465;28;19925;-78
2023/04/25 10:18:56;;;;;;;;;;;;;;;13.44;100.00;97223.69;5026089;28;20501;-78
2023/04/25 10:21:22;;;;;;;;;;;;;;;13.47;100.00;97223.09;5024393;28;19929;-78
2023/04/25 10:23:50;;;;;;;;;;;;;;;13.53;100.00;97220.00;5025295;28;20364;-80
2023/04/25 10:26:18;;;;;;;;;;;;;;;13.59;100.00;97219.91;5011440;28;19989;-79
2023/04/25 10:28:55;;;;;;;;;;;;;;;13.39;100.00;97213.84;5022903;28;19930;-79
2023/04/25 10:31:22;;;;;;;;;;;;;;;13.16;100.00;97222.06;5015437;28;20379;-79
2023/04/25 10:33:49;;;;;;;;;;;;;;;13.12;100.00;97227.22;5013772;28;20405;-77
2023/04/25 10:36:18;;;;;;;;;;;;;;;13.02;100.00;97242.66;5013675;28;20020;-79
2023/04/25 10:38:45;;;;;;;;;;;;;;;12.56;100.00;97230.03;5000737;28;20052;-78
2023/04/25 10:41:12;;;;;;;;;;;;;;;12.70;100.00;97230.06;5013085;28;19929;-78
2023/04/25 10:43:40;;;;;;;;;;;;;;;12.67;100.00;97231.44;5024243;28;19939;-77
2023/04/25 10:46:17;;;;;;;;;;;;;;;12.39;100.00;97235.09;5019105;28;19925;-79
2023/04/25 10:48:48;;;;;;;;;;;;;;;12.34;100.00;97235.19;5008967;28;20009;-78
2023/04/25 10:51:17;;;;;;;;;;;;;;;12.71;100.00;97239.69;5009511;28;19925;-79
2023/04/25 10:53:44;;;;;;;;;;;;;;;12.71;100.00;97235.13;4999121;28;19968;-79
2023/04/25 10:56:12;;;;;;;;;;;;;;;12.63;100.00;97235.78;4998524;28;20352;-79
2023/04/25 10:58:43;;;;;;;;;;;;;;;12.71;100.00;97226.31;5014668;28;19929;-79
2023/04/25 11:01:10;;;;;;;;;;;;;;;12.77;100.00;97222.44;5013622;28;20043;-79
2023/04/25 11:03:39;;;;;;;;;;;;;;;12.90;100.00;97224.38;5021451;28;20533;-79
2023/04/25 11:06:09;;;;;;;;;;;;;;;12.94;100.00;97220.81;5022677;28;19928;-78
2023/04/25 11:08:48;;;;;;;;;;;;;;;13.08;100.00;97231.59;5033961;28;19925;-79
2023/04/25 11:11:15;;;;;;;;;;;;;;;12.86;100.00;97237.56;5018033;28;19971;-79
2023/04/25 11:13:41;;;;;;;;;;;;;;;13.22;100.00;97231.59;5025019;28;19956;-79
2023/04/25 11:16:09;;;;;;;;;;;;;;;13.51;100.00;97232.94;5013138;28;19925;-80
2023/04/25 11:18:35;;;;;;;;;;;;;;;13.58;99.94;97235.22;5018028;28;20027;-79
2023/04/25 11:21:03;;;;;;;;;;;;;;;13.33;89.82;97233.03;5016492;28;19932;-79
2023/04/25 11:23:30;;;;;;;;;;;;;;;13.33;91.38;97236.50;5024091;28;19925;-79
2023/04/25 11:25:57;;;;;;;;;;;;;;;13.26;90.60;97225.38;5007763;28;19987;-78
2023/04/25 11:28:23;;;;;;;;;;;;;;;13.34;94.16;97229.22;5020279;28;19947;-80
2023/04/25 11:30:50;;;;;;;;;;;;;;;13.40;90.89;97233.44;5017760;28;19991;-79
2023/04/25 11:33:18;;;;;;;;;;;;;;;13.42;90.40;97233.91;5003167;28;20446;-79
2023/04/25 11:35:44;;;;;;;;;;;;;;;13.31;92.36;97240.53;5013467;28;19925;-79
2023/04/25 11:38:11;;;;;;;;;;;;;;;13.38;93.40;97232.91;5023510;28;19925;-79
2023/04/25 11:40:37;;;;;;;;;;;;;;;13.44;88.27;97229.84;5001225;28;19938;-79
2023/04/25 11:43:04;;;;;;;;;;;;;;;13.47;87.21;97231.13;5002494;28;19925;-79
2023/04/25 11:45:30;;;;;;;;;;;;;;;13.64;87.18;97238.59;5015983;28;20036;-79
2023/04/25 11:47:57;;;;;;;;;;;;;;;13.86;87.58;97225.25;4999265;28;19980;-78
2023/04/25 11:50:25;;;;;;;;;;;;;;;13.97;79.86;97216.69;5001651;28;19925;-80
2023/04/25 11:52:51;;;;;;;;;;;;;;;14.05;82.65;97215.97;5006421;28;19945;-81
2023/04/25 11:55:19;;;;;;;;;;;;;;;14.23;83.29;97229.56;5009654;28;19932;-80
2023/04/25 11:57:47;;;;;;;;;;;;;;;14.39;80.39;97214.72;5011878;28;19925;-80
2023/04/25 12:00:15;;;;;;;;;;;;;;;14.34;80.08;97222.88;5012145;28;19972;-78
2023/04/25 12:02:42;;;;;;;;;;;;;;;14.44;75.49;97215.41;5012299;28;19929;-80
2023/04/25 12:05:09;;;;;;;;;;;;;;;14.50;78.08;97224.94;5013512;28;19933;-79
2023/04/25 12:07:37;;;;;;;;;;;;;;;14.55;75.83;97221.31;5000294;28;19940;-80
2023/04/25 12:10:08;;;;;;;;;;;;;;;14.62;75.91;97210.94;5010916;28;19955;-79
2023/04/25 12:12:34;;;;;;;;;;;;;;;14.64;71.16;97218.72;5020790;28;19932;-80
2023/04/25 12:15:09;;;;;;;;;;;;;;;14.63;70.10;97215.22;5020460;28;20418;-79
2023/04/25 12:17:37;;;;;;;;;;;;;;;14.79;70.68;97207.59;5002761;28;19936;-79
2023/04/25 12:20:07;;;;;;;;;;;;;;;14.64;64.59;97211.41;5012453;28;19979;-79
2023/04/25 12:22:33;;;;;;;;;;;;;;;14.47;65.70;97204.06;5022221;28;19925;-79
2023/04/25 12:25:03;;;;;;;;;;;;;;;14.52;64.23;97205.81;5015426;28;19928;-79
2023/04/25 12:27:31;;;;;;;;;;;;;;;14.34;64.24;97215.63;5020413;28;19936;-78
2023/04/25 12:29:58;;;;;;;;;;;;;;;14.33;65.68;97230.16;5012341;28;20008;-80
2023/04/25 12:32:24;;;;;;;;;;;;;;;14.23;66.77;97225.00;5019708;28;19925;-79
2023/04/25 12:34:51;;;;;;;;;;;;;;;13.84;67.27;97227.44;5005902;28;20035;-78
2023/04/25 12:37:17;;;;;;;;;;;;;;;13.92;70.93;97224.88;5019087;28;20163;-79